Terminal Aerodrome Forecast
Issued by NWS

Home | Current Version | Previous Version | Text Only | Print | Product List | Glossary On
Versions: 1 2 3 4 5 6 7 8 9 10 11 12 13 14 15 16 17 18 19 20
000
FTUS43 KIND 202030 AAA
TAFLAF
TAF AMD
KLAF 202030Z 2021/2118 22010KT P6SM SCT030 SCT100
     FM202300 23008KT P6SM VCTS SCT030CB BKN100
     FM210600 03004KT P6SM SCT045 BKN070
     FM210800 15004KT 4SM BR SCT045 BKN070
     FM211300 07004KT P6SM SCT045 BKN060
     FM211700 16005KT P6SM FEW045 SCT060=

USA.gov is the U.S. government's official web portal to all federal, state and local government web resources and services.